Aviation Digital Data Service (ADDS)

Output produced by METARs form (0534 UTC 19 March 2019)
found at http://www.aviationweather.gov/metar/data/
 
Forecast for: VTCL (LAMPANG , TH)
Text: TAF VTCL 182300Z 1900/1924 20005KT 4000 BR SCT030
Forecast period: 0000 to 0500 UTC 19 March 2019
Forecast type: FROM: standard forecast or significant change
Winds: from the SSW (200 degrees) at 6 MPH (5 knots; 2.6 m/s)
Visibility: 2.49 miles (4.01 km)
Ceiling: at least 12,000 feet AGL
Clouds: scattered clouds at 3000 feet AGL
Weather: BR  (mist)
Text: BECMG 1905/1907 7000 NSW
Forecast period: 0500 UTC 19 March 2019 to 0000 UTC 20 March 2019
Forecast type: BECOMING: Conditions expected to become as follows by 0700 UTC 19 March 2019
Winds: from the SSW (200 degrees) at 6 MPH (5 knots; 2.6 m/s)
Visibility: 4 miles (7 km)
Ceiling: at least 12,000 feet AGL
Clouds: scattered clouds at 3000 feet AGL
Weather: NSW  (no significant weather)
Text: TEMPO 1906/1912 VRB15G25KT 5000 TSRA FEW020CB BKN030
Forecast period: 0600 to 1200 UTC 19 March 2019
Forecast type: TEMPORARY: The following changes expected for less than half the time period
Winds: variable direction winds at 17 MPH (15 knots; 7.7 m/s)
gusting to 29 MPH (25 knots; 12.9 m/s)
Visibility: 3 miles (5 km)
Ceiling: 3000 feet AGL
Clouds: few clouds at 2000 feet AGL
broken clouds at 3000 feet AGL
Weather: TSRA  (rain associated with thunderstorm(s))